ADDS METAR Data INFO
IDs: Format: Raw Decoded Include TAF

Data at: 0106 UTC 24 Jun 2018

KLCH 240053Z 19006KT 10SM CLR 29/24 A2987 RMK AO2 SLP120 T02890239
KLCH 232353Z 19007KT 10SM CLR 30/24 A2986 RMK AO2 SLP119 T03000239 10322 20300 58010
KLCH 232253Z 20008G16KT 10SM FEW025 31/24 A2987 RMK AO2 SLP122 T03110244
KLCH 232153Z 19008KT 10SM FEW028 32/24 A2989 RMK AO2 SLP128 T03170244
KLCH 232053Z 19009G19KT 10SM SCT029 32/24 A2989 RMK AO2 SLP130 T03170244 56016
KLCH 231953Z 20009KT 10SM SCT026 SCT032 32/25 A2991 RMK AO2 SLP134 T03220250
KLCH 231853Z 18010G17KT 10SM FEW028 32/25 A2993 RMK AO2 SLP141 T03170250
KLCH 231753Z 21009KT 10SM FEW027 BKN036 BKN060 31/24 A2994 RMK AO2 SLP146 T03110244 10317 20272 51005 $
KLCH 231700Z 19009G16KT 10SM FEW023 SCT029 32/25 A2994 RMK AO2 T03170250 $
KLCH 231653Z 19010KT 10SM BKN022 BKN030 BKN038 32/25 A2994 RMK AO2 SLP146 T03170250 $
KLCH 231553Z 20013G19KT 10SM BKN022 BKN030 BKN038 31/25 A2993 RMK AO2 SLP142 T03110250 $
KLCH 231551Z 18010G19KT 10SM SCT022 BKN032 31/25 A2993 RMK AO2 $
KLCH 231453Z 20009KT 10SM BKN019 30/26 A2993 RMK AO2 SLP141 T03000256 52008 $
KLCH 231433Z 19008KT 10SM BKN019 30/26 A2992 RMK AO2 T03000256 $
KLCH 231412Z 19012G19KT 10SM SCT018 30/25 A2992 RMK AO2 T03000250 $
KLCH 231353Z 20008KT 170V230 10SM BKN018 BKN022 29/26 A2992 RMK AO2 SLP139 T02940256 $
KLCH 231331Z 20006KT 10SM BKN015 BKN022 29/26 A2992 RMK AO2 T02890256 $
KLCH 231253Z 21005KT 10SM CLR 28/26 A2991 RMK AO2 SLP135 T02830256 $
KLCH 231153Z 22004KT 10SM CLR 27/25 A2990 RMK AO2 SLP133 T02720250 10278 20267 53007 $
KLCH 231053Z AUTO 21005KT 10SM CLR 27/24 A2988 RMK AO2 SLP126 T02720244 $
KLCH 230953Z AUTO 21005KT 10SM CLR 27/24 A2988 RMK AO2 SLP127 T02720244 $
KLCH 230853Z AUTO 22005KT 10SM CLR 27/24 A2988 RMK AO2 SLP126 T02720239 53004
KLCH 230753Z AUTO 22006KT 10SM FEW021 SCT028 27/24 A2988 RMK AO2 SLP125 T02720239
KLCH 230716Z AUTO 22006KT 10SM FEW018 SCT022 BKN035 28/24 A2987 RMK AO2 T02780239
KLCH 230653Z AUTO 21006KT 10SM SCT018 BKN028 BKN034 28/24 A2987 RMK AO2 SLP121 T02780244
KLCH 230651Z AUTO VRB04KT 10SM FEW016 SCT021 BKN028 28/24 A2987 RMK AO2
KLCH 230553Z AUTO 20005KT 10SM SCT018 SCT024 27/24 A2985 RMK AO2 SLP117 T02720244 10294 20272 403220256 50000
KLCH 230453Z AUTO 21007KT 10SM CLR 27/24 A2986 RMK AO2 SLP118 T02720244
KLCH 230353Z AUTO 21006KT 10SM SCT019 28/24 A2986 RMK AO2 SLP120 T02780244
KLCH 230309Z AUTO 22007KT 10SM SCT020 28/24 A2986 RMK AO2 T02780244
KLCH 230301Z AUTO 22006KT 10SM BKN020 28/24 A2985 RMK AO2 T02780244
KLCH 230253Z AUTO 21006KT 10SM SCT020 28/24 A2985 RMK AO2 SLP117 T02780244 51004
KLCH 230153Z AUTO 21006KT 10SM CLR 28/24 A2985 RMK AO2 SLP117 T02780239
KLCH 230053Z 20007KT 10SM CLR 28/24 A2985 RMK AO2 SLP114 T02830239
KLCH 222353Z 19010G17KT 10SM FEW020 29/24 A2984 RMK AO2 SLP113 T02940244 10322 20294 55009
KLCH 222253Z 19009G17KT 10SM FEW030 29/25 A2984 RMK AO2 SLP112 T02940250
KLCH 222153Z 19010KT 10SM SCT031 31/25 A2986 RMK AO2 SLP118 T03110250
KLCH 222053Z 21009KT 10SM FEW026 SCT036 SCT042 31/26 A2987 RMK AO2 SLP122 T03110256 56022
KLCH 222026Z 21010G17KT 10SM FEW032 31/26 A2987 RMK AO2 T03110256
KLCH 221953Z 21010G19KT 10SM FEW030 SCT036 31/26 A2988 RMK AO2 SLP125 T03110256
KLCH 221853Z 21010G16KT 10SM SCT027 31/26 A2991 RMK AO2 SLP136 T03110256
KLCH 221753Z 24010KT 10SM SCT027 32/25 A2993 RMK AO2 SLP143 T03170250 10317 20278 50002
KLCH 221653Z 24012G17KT 10SM SCT027 BKN035 31/24 A2994 RMK AO2 SLP146 T03110244
KLCH 221553Z 23014G19KT 10SM FEW023 31/25 A2994 RMK AO2 SLP145 T03060250
KLCH 221453Z 24010G17KT 10SM SCT016 SCT025 29/25 A2993 RMK AO2 SLP142 T02890250 51010
KLCH 221432Z 26011G16KT 10SM BKN018 BKN025 29/26 A2993 RMK AO2 T02940256
KLCH 221422Z 24011G18KT 10SM SCT018 BKN025 29/26 A2993 RMK AO2 T02940256
KLCH 221353Z 24010G16KT 10SM BKN016 29/26 A2993 RMK AO2 SLP141 T02890256
KLCH 221327Z 23009KT 10SM BKN011 28/26 A2992 RMK AO2 T02830261